Time;durP1;ratioP1;P1;durP2;ratioP2;P2;SDS_P1;SDS_P2;PMS_P1;PMS_P2;Temp;Humidity;BMP_temperature;BMP_pressure;BME280_temperature;BME280_humidity;BME280_pressure;Samples;Min_cycle;Max_cycle;Signal;HPM_P1;HPM_P2
2021/12/22 00:00:59;;;;;;;13.57;5.75;;;5.70;99.90;;;;;;4993558;28;20446;-73
2021/12/22 00:03:25;;;;;;;13.63;6.68;;;5.80;99.90;;;;;;4993406;28;20030;-74
2021/12/22 00:05:52;;;;;;;9.70;6.40;;;5.80;99.90;;;;;;4992726;28;20047;-74
2021/12/22 00:08:19;;;;;;;9.68;6.70;;;5.90;99.90;;;;;;4991864;28;20023;-74
2021/12/22 00:10:46;;;;;;;7.95;6.10;;;5.90;99.90;;;;;;4993090;28;20038;-74
2021/12/22 00:13:12;;;;;;;12.75;6.72;;;5.90;99.90;;;;;;4992829;28;20518;-74
2021/12/22 00:15:38;;;;;;;12.25;6.40;;;6.00;99.90;;;;;;4992982;28;20177;-74
2021/12/22 00:18:04;;;;;;;14.52;7.55;;;6.00;99.90;;;;;;4993070;28;20113;-74
2021/12/22 00:20:30;;;;;;;11.02;7.40;;;6.00;99.90;;;;;;4991314;28;20463;-74
2021/12/22 00:22:56;;;;;;;13.85;8.65;;;5.90;99.90;;;;;;4991815;28;20037;-74
2021/12/22 00:25:25;;;;;;;16.15;9.02;;;5.90;99.90;;;;;;4992969;28;20029;-74
2021/12/22 00:27:52;;;;;;;14.82;7.85;;;5.80;99.90;;;;;;4995040;28;20069;-74
2021/12/22 00:30:18;;;;;;;11.90;8.57;;;5.70;99.90;;;;;;4977573;28;20030;-74
2021/12/22 00:32:51;;;;;;;14.63;8.00;;;5.70;99.90;;;;;;4977711;28;20480;-74
2021/12/22 00:35:19;;;;;;;13.30;7.95;;;5.60;99.90;;;;;;4977559;28;20035;-74
2021/12/22 00:37:45;;;;;;;12.05;7.45;;;5.60;99.90;;;;;;4977304;28;20023;-74
2021/12/22 00:40:11;;;;;;;14.73;8.57;;;5.60;99.90;;;;;;4976935;28;20026;-74
2021/12/22 00:42:37;;;;;;;16.50;9.43;;;5.60;99.90;;;;;;4977127;28;20081;-74
2021/12/22 00:45:03;;;;;;;12.63;7.97;;;5.60;99.90;;;;;;4976857;28;20019;-73
2021/12/22 00:47:31;;;;;;;17.42;7.63;;;5.50;99.90;;;;;;4976897;28;20061;-73
2021/12/22 00:49:58;;;;;;;14.55;7.57;;;5.50;99.90;;;;;;4976916;28;20029;-74
2021/12/22 00:52:24;;;;;;;12.75;7.75;;;5.50;99.90;;;;;;4993011;28;20035;-74
2021/12/22 00:54:50;;;;;;;13.80;7.60;;;5.60;99.90;;;;;;4996205;28;20045;-73
2021/12/22 00:57:17;;;;;;;9.55;7.20;;;5.60;99.90;;;;;;4994187;28;20034;-74
2021/12/22 00:59:44;;;;;;;13.18;7.82;;;5.60;99.90;;;;;;4995081;28;20490;-74
2021/12/22 01:02:11;;;;;;;14.10;7.43;;;5.60;99.90;;;;;;4996651;28;20033;-73
2021/12/22 01:04:37;;;;;;;11.80;7.30;;;5.60;99.90;;;;;;4994821;28;20391;-73
2021/12/22 01:07:05;;;;;;;11.93;7.47;;;5.60;99.90;;;;;;4996196;28;20050;-74
2021/12/22 01:09:31;;;;;;;12.35;7.30;;;5.60;99.90;;;;;;4996235;28;20033;-74
2021/12/22 01:11:57;;;;;;;15.60;6.97;;;5.60;99.90;;;;;;4995985;28;20026;-75
2021/12/22 01:14:23;;;;;;;11.07;7.70;;;5.60;99.90;;;;;;4993209;28;20030;-75
2021/12/22 01:16:51;;;;;;;11.43;8.30;;;5.60;99.90;;;;;;4989891;28;20033;-75
2021/12/22 01:19:25;;;;;;;14.23;8.23;;;5.60;99.90;;;;;;4976305;28;20042;-75
2021/12/22 01:22:00;;;;;;;11.30;8.07;;;5.60;99.90;;;;;;4976550;28;20492;-74
2021/12/22 01:24:33;;;;;;;12.20;6.63;;;5.60;99.90;;;;;;4976547;28;20387;-75
2021/12/22 01:27:07;;;;;;;12.60;6.25;;;5.70;99.90;;;;;;4976338;28;20019;-74
2021/12/22 01:29:34;;;;;;;9.70;6.40;;;5.70;99.90;;;;;;4976229;28;20379;-74
2021/12/22 01:32:01;;;;;;;8.43;6.10;;;5.80;99.90;;;;;;4976091;28;20023;-75
2021/12/22 01:34:27;;;;;;;12.63;6.13;;;5.80;99.90;;;;;;4976103;28;20019;-74
2021/12/22 01:36:53;;;;;;;11.13;6.07;;;5.90;99.90;;;;;;4973772;28;20488;-74
2021/12/22 01:39:19;;;;;;;8.98;5.63;;;6.00;99.90;;;;;;4975643;28;20575;-74
2021/12/22 01:41:45;;;;;;;10.45;6.10;;;6.00;99.90;;;;;;4976102;28;20436;-74
2021/12/22 01:44:23;;;;;;;11.27;5.70;;;6.00;99.90;;;;;;4976323;28;20030;-74
2021/12/22 01:49:55;;;;;;;8.25;5.60;;;6.10;99.90;;;;;;4995448;28;20414;-74
2021/12/22 01:52:22;;;;;;;15.15;6.53;;;6.20;99.90;;;;;;4995236;28;20091;-74
2021/12/22 01:54:51;;;;;;;9.90;6.80;;;6.10;99.90;;;;;;4995169;28;20102;-74
2021/12/22 01:57:18;;;;;;;12.13;7.60;;;6.10;99.90;;;;;;4993837;28;20030;-74
2021/12/22 01:59:49;;;;;;;14.77;7.40;;;6.00;99.90;;;;;;4994712;28;20069;-75
2021/12/22 02:02:16;;;;;;;11.25;7.20;;;5.90;99.90;;;;;;4995191;28;20495;-74
2021/12/22 02:04:42;;;;;;;9.52;6.95;;;5.80;99.90;;;;;;4994765;28;20042;-74
2021/12/22 02:07:10;;;;;;;10.77;7.63;;;5.70;99.90;;;;;;4994886;28;20042;-74
2021/12/22 02:12:06;;;;;;;11.40;7.28;;;5.70;99.90;;;;;;4975638;28;20050;-74
2021/12/22 02:14:31;;;;;;;12.00;8.23;;;5.70;99.90;;;;;;4975542;28;20473;-74
2021/12/22 02:16:57;;;;;;;15.52;8.13;;;5.60;99.90;;;;;;4975789;28;20054;-74
2021/12/22 02:19:23;;;;;;;12.55;7.75;;;5.60;99.90;;;;;;4975460;28;20035;-75
2021/12/22 02:21:54;;;;;;;12.13;7.35;;;5.60;99.90;;;;;;4975576;28;20027;-74
2021/12/22 02:24:19;;;;;;;11.70;7.60;;;5.60;99.90;;;;;;4975081;28;20110;-74
2021/12/22 02:27:03;;;;;;;11.10;7.72;;;5.60;99.90;;;;;;4975244;28;20113;-73
2021/12/22 02:29:37;;;;;;;13.70;7.93;;;5.60;99.90;;;;;;4975596;28;20034;-74
2021/12/22 02:34:52;;;;;;;16.13;7.20;;;5.60;99.90;;;;;;4973500;28;20399;-74
2021/12/22 02:37:24;;;;;;;11.90;7.93;;;5.60;99.90;;;;;;4975149;28;20027;-74
2021/12/22 02:39:58;;;;;;;11.70;6.85;;;5.70;99.90;;;;;;4991351;28;20057;-74
2021/12/22 02:42:27;;;;;;;16.13;6.88;;;5.70;99.90;;;;;;4994322;28;20463;-74
2021/12/22 02:44:52;;;;;;;8.75;6.63;;;5.80;99.90;;;;;;4994047;28;20399;-74
2021/12/22 02:47:20;;;;;;;10.57;6.07;;;5.80;99.90;;;;;;4994279;28;20037;-74
2021/12/22 02:49:46;;;;;;;10.40;6.22;;;5.90;99.90;;;;;;4993726;28;20054;-74
2021/12/22 02:52:12;;;;;;;10.70;7.43;;;5.90;99.90;;;;;;4994222;28;20034;-74
2021/12/22 02:54:50;;;;;;;14.10;7.72;;;5.90;99.90;;;;;;4994194;28;20056;-74
2021/12/22 02:57:25;;;;;;;15.98;7.95;;;5.90;99.90;;;;;;4994091;28;20031;-74
2021/12/22 03:00:22;;;;;;;13.13;7.85;;;5.80;99.90;;;;;;4994071;28;20042;-74
2021/12/22 03:02:57;;;;;;;14.68;7.70;;;5.80;99.90;;;;;;4974861;28;20019;-74
2021/12/22 03:05:24;;;;;;;12.82;7.97;;;5.80;99.90;;;;;;4973523;28;20030;-74
2021/12/22 03:07:50;;;;;;;17.02;8.27;;;5.70;99.90;;;;;;4990624;28;20088;-74
2021/12/22 03:10:18;;;;;;;15.98;7.65;;;5.70;99.90;;;;;;4993692;28;20023;-74
2021/12/22 03:12:52;;;;;;;11.93;7.55;;;5.70;99.90;;;;;;4992655;28;20513;-74
2021/12/22 03:15:19;;;;;;;13.20;7.82;;;5.70;99.90;;;;;;4992624;28;20109;-74
2021/12/22 03:17:46;;;;;;;14.48;8.88;;;5.70;99.90;;;;;;4993764;28;20088;-74
2021/12/22 03:20:14;;;;;;;11.07;6.72;;;5.70;99.90;;;;;;4993598;28;20031;-75
2021/12/22 03:22:42;;;;;;;11.77;7.50;;;5.70;99.90;;;;;;4993663;28;20026;-74
2021/12/22 03:25:14;;;;;;;13.23;7.40;;;5.70;99.90;;;;;;4993430;28;20031;-74
2021/12/22 03:27:46;;;;;;;;;;;5.80;99.90;;;;;;4992974;28;20088;-74
2021/12/22 03:30:15;;;;;;;16.60;7.15;;;5.80;99.90;;;;;;4993996;28;19906;-74
2021/12/22 03:32:41;;;;;;;13.73;7.82;;;5.80;99.90;;;;;;4993701;28;20040;-74
2021/12/22 03:35:08;;;;;;;15.63;8.13;;;5.80;99.90;;;;;;4994024;28;20023;-74
2021/12/22 03:37:34;;;;;;;15.13;8.38;;;5.80;99.90;;;;;;4979062;28;20077;-74
2021/12/22 03:40:00;;;;;;;11.95;7.78;;;5.70;99.90;;;;;;4974338;28;20443;-74
2021/12/22 03:42:25;;;;;;;13.05;7.72;;;5.70;99.90;;;;;;4974273;28;20468;-74
2021/12/22 03:44:51;;;;;;;12.48;7.57;;;5.70;99.90;;;;;;4974126;28;20030;-74
2021/12/22 03:47:17;;;;;;;14.68;7.65;;;5.80;99.90;;;;;;4974015;28;20019;-74
2021/12/22 03:49:42;;;;;;;13.70;6.95;;;5.80;99.90;;;;;;4973471;28;20030;-74
2021/12/22 03:52:08;;;;;;;14.45;7.25;;;5.80;99.90;;;;;;4974237;28;20094;-74
2021/12/22 03:54:34;;;;;;;9.98;7.07;;;5.80;99.90;;;;;;4973837;28;20051;-74
2021/12/22 03:57:00;;;;;;;24.08;8.10;;;5.90;99.90;;;;;;4974922;28;20499;-74
2021/12/22 03:59:26;;;;;;;16.50;7.10;;;5.90;99.90;;;;;;4973442;28;20034;-73
2021/12/22 04:01:52;;;;;;;10.65;7.20;;;5.90;99.90;;;;;;4972824;28;20023;-74
2021/12/22 04:04:18;;;;;;;15.23;8.20;;;5.90;99.90;;;;;;4973644;28;20030;-73
2021/12/22 04:06:50;;;;;;;14.10;7.20;;;5.90;99.90;;;;;;4973695;28;20043;-74
2021/12/22 04:09:16;;;;;;;11.63;7.40;;;5.90;99.90;;;;;;4973674;28;20030;-74
2021/12/22 04:11:45;;;;;;;11.10;7.93;;;5.90;99.90;;;;;;4972915;28;20069;-73
2021/12/22 04:14:11;;;;;;;12.95;7.32;;;5.90;99.90;;;;;;4973878;28;20149;-74
2021/12/22 04:16:38;;;;;;;11.50;7.65;;;5.80;99.90;;;;;;4974062;28;20472;-73
2021/12/22 04:19:04;;;;;;;11.80;7.70;;;5.80;99.90;;;;;;4973573;28;20126;-73
2021/12/22 04:21:30;;;;;;;12.07;7.60;;;5.90;99.90;;;;;;4973760;28;20456;-74
2021/12/22 04:23:56;;;;;;;11.32;7.50;;;5.80;99.90;;;;;;4973557;28;20033;-74
2021/12/22 04:26:22;;;;;;;12.85;8.15;;;5.90;99.90;;;;;;4973738;28;20027;-74
2021/12/22 04:28:47;;;;;;;9.07;6.65;;;5.90;99.90;;;;;;4973162;28;20025;-73
2021/12/22 04:31:13;;;;;;;12.35;7.95;;;5.90;99.90;;;;;;4972417;28;20593;-74
2021/12/22 04:33:39;;;;;;;13.63;7.80;;;6.00;99.90;;;;;;4973441;28;20023;-73
2021/12/22 04:36:05;;;;;;;10.85;7.82;;;6.00;99.90;;;;;;4974519;28;20090;-74
2021/12/22 04:38:30;;;;;;;12.55;7.88;;;6.00;99.90;;;;;;4972076;28;20432;-74
2021/12/22 04:40:56;;;;;;;13.27;8.55;;;6.00;99.90;;;;;;4980306;28;20061;-73
2021/12/22 04:43:22;;;;;;;12.10;7.60;;;5.90;99.90;;;;;;4992936;28;20018;-73
2021/12/22 04:45:47;;;;;;;14.43;8.13;;;5.90;99.90;;;;;;4992705;28;20467;-74
2021/12/22 04:48:13;;;;;;;14.50;8.70;;;5.80;99.90;;;;;;4992674;28;20030;-73
2021/12/22 04:50:39;;;;;;;14.00;8.52;;;5.80;99.90;;;;;;4992695;28;20076;-74
2021/12/22 04:53:17;;;;;;;13.05;8.77;;;5.80;99.90;;;;;;4991480;28;20027;-74
2021/12/22 04:55:43;;;;;;;14.15;9.02;;;5.80;99.90;;;;;;4986087;28;20023;-73
2021/12/22 04:58:09;;;;;;;14.23;8.60;;;5.80;99.90;;;;;;4973291;28;20550;-74
2021/12/22 05:00:36;;;;;;;13.13;8.93;;;5.80;99.90;;;;;;4973332;28;20414;-73
2021/12/22 05:03:03;;;;;;;12.57;9.20;;;5.80;99.90;;;;;;4973234;28;20073;-74
2021/12/22 05:05:29;;;;;;;15.25;9.82;;;5.80;99.90;;;;;;4973084;28;20387;-73
2021/12/22 05:07:55;;;;;;;20.35;11.48;;;5.80;99.90;;;;;;4973353;28;20505;-73
2021/12/22 05:10:22;;;;;;;16.05;9.73;;;5.80;99.90;;;;;;4972626;28;20031;-73
2021/12/22 05:12:48;;;;;;;16.23;9.60;;;5.70;99.90;;;;;;4976332;28;20022;-73
2021/12/22 05:15:14;;;;;;;18.08;11.38;;;5.60;99.90;;;;;;4976486;28;20444;-73
2021/12/22 05:20:10;;;;;;;21.02;11.32;;;5.50;99.90;;;;;;4976675;28;20030;-74
2021/12/22 05:22:36;;;;;;;24.65;12.40;;;5.30;99.90;;;;;;4976561;28;20079;-73
2021/12/22 05:25:04;;;;;;;20.98;12.55;;;5.30;99.90;;;;;;4977280;28;20035;-74
2021/12/22 05:27:30;;;;;;;21.55;11.65;;;5.20;99.90;;;;;;4995703;28;20018;-73
2021/12/22 05:29:56;;;;;;;20.85;13.25;;;5.20;99.90;;;;;;4995968;28;20033;-73
2021/12/22 05:32:26;;;;;;;18.30;11.25;;;5.20;99.90;;;;;;4995870;28;20023;-74
2021/12/22 05:34:52;;;;;;;25.63;14.05;;;5.20;99.90;;;;;;4995252;28;20022;-73
2021/12/22 05:37:18;;;;;;;23.52;13.70;;;5.30;99.90;;;;;;4995967;28;20423;-74
2021/12/22 05:39:44;;;;;;;25.55;12.65;;;5.20;99.90;;;;;;4993874;28;20491;-74
2021/12/22 05:42:09;;;;;;;24.23;12.27;;;5.20;99.90;;;;;;4995683;28;20026;-74
2021/12/22 05:44:35;;;;;;;19.83;11.68;;;5.20;99.90;;;;;;4995003;28;20034;-73
2021/12/22 05:47:01;;;;;;;19.23;12.60;;;5.20;99.90;;;;;;4995517;28;20455;-73
2021/12/22 05:49:26;;;;;;;18.55;12.77;;;5.20;99.90;;;;;;4995270;28;20025;-73
2021/12/22 05:51:52;;;;;;;19.38;13.23;;;5.20;99.90;;;;;;4994189;28;20037;-73
2021/12/22 05:54:18;;;;;;;32.90;13.23;;;5.20;99.90;;;;;;4994869;28;20026;-74
2021/12/22 05:56:43;;;;;;;23.67;13.80;;;5.20;99.90;;;;;;4993512;28;20117;-74
2021/12/22 05:59:09;;;;;;;20.95;12.40;;;5.20;99.90;;;;;;4993851;28;20534;-73
2021/12/22 06:01:35;;;;;;;22.05;13.80;;;5.10;99.90;;;;;;4995028;28;20023;-73
2021/12/22 06:04:02;;;;;;;23.63;14.80;;;5.10;99.90;;;;;;4995354;28;20029;-74
2021/12/22 06:06:28;;;;;;;22.10;13.60;;;5.10;99.90;;;;;;4995068;28;20042;-74
2021/12/22 06:08:54;;;;;;;22.15;14.25;;;5.00;99.90;;;;;;4995285;28;20027;-74
2021/12/22 06:11:20;;;;;;;21.92;14.52;;;5.00;99.90;;;;;;4993793;28;20023;-74
2021/12/22 06:13:45;;;;;;;23.45;15.27;;;5.00;99.90;;;;;;4994636;28;20556;-74
2021/12/22 06:16:11;;;;;;;24.63;15.45;;;5.00;99.90;;;;;;4994759;28;20026;-73
2021/12/22 06:18:44;;;;;;;22.13;14.75;;;5.00;99.90;;;;;;4995007;28;20109;-73
2021/12/22 06:21:12;;;;;;;21.60;12.82;;;5.10;99.90;;;;;;4994994;28;20032;-74
2021/12/22 06:23:38;;;;;;;21.90;13.68;;;5.20;99.90;;;;;;4995044;28;20078;-74
2021/12/22 06:26:05;;;;;;;24.30;14.07;;;5.30;99.90;;;;;;4992700;28;20395;-74
2021/12/22 06:28:31;;;;;;;26.05;14.50;;;5.40;99.90;;;;;;4994957;28;20506;-74
2021/12/22 06:30:56;;;;;;;19.50;13.55;;;5.40;99.90;;;;;;4994500;28;20061;-74
2021/12/22 06:33:22;;;;;;;19.77;13.60;;;5.50;99.90;;;;;;4998037;28;20054;-74
2021/12/22 06:35:48;;;;;;;20.88;13.38;;;5.50;99.90;;;;;;5001168;28;20033;-73
2021/12/22 06:38:17;;;;;;;20.00;12.60;;;5.50;99.90;;;;;;4994805;28;20054;-74
2021/12/22 06:40:43;;;;;;;23.65;14.00;;;5.50;99.90;;;;;;4994145;28;20492;-73
2021/12/22 06:43:09;;;;;;;22.63;13.68;;;5.60;99.90;;;;;;4994675;28;20027;-76
2021/12/22 06:45:35;;;;;;;23.38;13.75;;;5.60;99.90;;;;;;4994240;28;20022;-74
2021/12/22 06:48:01;;;;;;;21.58;13.05;;;5.60;99.90;;;;;;4992992;28;20031;-74
2021/12/22 06:50:27;;;;;;;23.90;14.15;;;5.60;99.90;;;;;;4992609;28;20037;-75
2021/12/22 06:52:53;;;;;;;24.38;13.85;;;5.60;99.90;;;;;;4994463;28;20022;-75
2021/12/22 06:55:18;;;;;;;22.17;13.48;;;5.60;99.90;;;;;;4989792;28;20035;-78
2021/12/22 06:57:44;;;;;;;27.50;13.98;;;5.60;99.90;;;;;;4975570;28;20479;-83
2021/12/22 07:00:11;;;;;;;22.92;14.75;;;5.60;99.90;;;;;;4974876;28;20038;-75
2021/12/22 07:02:38;;;;;;;24.27;14.30;;;5.60;99.90;;;;;;4979798;28;20371;-75
2021/12/22 07:05:06;;;;;;;25.60;14.55;;;5.60;99.90;;;;;;4992512;28;20093;-75
2021/12/22 07:07:32;;;;;;;35.00;15.85;;;5.60;99.90;;;;;;4994048;28;20499;-75
2021/12/22 07:09:58;;;;;;;25.73;14.30;;;5.50;99.90;;;;;;4993586;28;20089;-74
2021/12/22 07:12:24;;;;;;;23.27;14.38;;;5.60;99.90;;;;;;4993580;28;20552;-76
2021/12/22 07:14:49;;;;;;;21.63;14.05;;;5.50;99.90;;;;;;4992198;28;20029;-74
2021/12/22 07:17:15;;;;;;;29.52;15.13;;;5.50;99.90;;;;;;4992807;28;20030;-74
2021/12/22 07:19:41;;;;;;;25.80;14.75;;;5.50;99.90;;;;;;4990964;28;20041;-73
2021/12/22 07:22:06;;;;;;;23.20;14.85;;;5.50;99.90;;;;;;4992400;28;20030;-74
2021/12/22 07:24:33;;;;;;;24.38;14.68;;;5.50;99.90;;;;;;4993250;28;20026;-74
2021/12/22 07:26:59;;;;;;;24.55;14.88;;;5.50;99.90;;;;;;4993122;28;20030;-74
2021/12/22 07:29:25;;;;;;;26.70;15.13;;;5.50;99.90;;;;;;4993358;28;20434;-74
2021/12/22 07:31:50;;;;;;;34.00;15.85;;;5.50;99.90;;;;;;4993955;28;20104;-74
2021/12/22 07:34:24;;;;;;;24.83;15.23;;;5.50;99.90;;;;;;4994376;28;20109;-74
2021/12/22 07:37:00;;;;;;;23.10;14.63;;;5.50;99.90;;;;;;4991528;28;20038;-74
2021/12/22 07:39:26;;;;;;;22.50;14.13;;;5.40;99.90;;;;;;4994406;28;20041;-74
2021/12/22 07:41:51;;;;;;;26.65;16.02;;;5.40;99.90;;;;;;4994185;28;20027;-74
2021/12/22 07:44:17;;;;;;;24.75;15.73;;;5.40;99.90;;;;;;4993916;28;20022;-74
2021/12/22 07:46:43;;;;;;;27.48;15.60;;;5.50;99.90;;;;;;4984723;28;20077;-74
2021/12/22 07:49:08;;;;;;;25.33;16.42;;;5.40;99.90;;;;;;4974622;28;20031;-74
2021/12/22 07:51:34;;;;;;;26.23;16.20;;;5.40;99.90;;;;;;4974563;28;20023;-74
2021/12/22 07:54:00;;;;;;;30.20;15.05;;;5.30;99.90;;;;;;4984684;28;20446;-74
2021/12/22 07:56:26;;;;;;;23.13;14.73;;;5.40;99.90;;;;;;4991891;28;20026;-74
2021/12/22 07:58:54;;;;;;;26.42;14.38;;;5.40;99.90;;;;;;4993784;28;20091;-74
2021/12/22 08:01:20;;;;;;;23.15;14.60;;;5.40;99.90;;;;;;4993763;28;20023;-73
2021/12/22 08:03:45;;;;;;;24.08;14.65;;;5.40;99.90;;;;;;4993348;28;20088;-74
2021/12/22 08:06:13;;;;;;;28.10;15.52;;;5.50;99.90;;;;;;4993345;28;20054;-74
2021/12/22 08:08:39;;;;;;;21.98;14.15;;;5.40;99.90;;;;;;4993144;28;20030;-73
2021/12/22 08:11:05;;;;;;;22.77;14.77;;;5.40;99.90;;;;;;4993391;28;20490;-74
2021/12/22 08:13:31;;;;;;;25.00;14.30;;;5.40;99.90;;;;;;4992534;28;20061;-74
2021/12/22 08:15:56;;;;;;;20.42;13.75;;;5.40;99.90;;;;;;4996949;28;20018;-74
2021/12/22 08:18:24;;;;;;;23.77;13.95;;;5.30;99.90;;;;;;4995116;28;20094;-74
2021/12/22 08:20:50;;;;;;;19.73;12.70;;;5.40;99.90;;;;;;4997119;28;20022;-74
2021/12/22 08:23:18;;;;;;;21.15;12.57;;;5.40;99.90;;;;;;4996564;28;20467;-74
2021/12/22 08:25:45;;;;;;;20.80;13.13;;;5.40;99.90;;;;;;4994663;28;20057;-74
2021/12/22 08:28:11;;;;;;;23.00;14.00;;;5.50;99.90;;;;;;4996905;28;20022;-73
2021/12/22 08:30:37;;;;;;;21.83;13.45;;;5.40;99.90;;;;;;4999521;28;20053;-74
2021/12/22 08:33:09;;;;;;;23.70;13.85;;;5.40;99.90;;;;;;4994898;28;20084;-74
2021/12/22 08:38:50;;;;;;;22.00;13.85;;;5.40;99.90;;;;;;4995769;28;20036;-77
2021/12/22 08:41:06;;;;;;;28.90;13.07;;;5.50;99.90;;;;;;5000131;28;20502;-76
2021/12/22 08:43:32;;;;;;;22.60;13.13;;;5.40;99.90;;;;;;4997804;28;20019;-76
2021/12/22 08:45:57;;;;;;;21.60;13.32;;;5.40;99.90;;;;;;4995265;28;20028;-77
2021/12/22 08:48:23;;;;;;;21.85;12.95;;;5.50;99.90;;;;;;5006028;28;20105;-79
2021/12/22 08:50:49;;;;;;;20.25;13.00;;;5.40;99.90;;;;;;5008122;28;20034;-77
2021/12/22 08:53:14;;;;;;;20.23;12.73;;;5.50;99.90;;;;;;5006704;28;20041;-76
2021/12/22 08:55:40;;;;;;;24.52;13.13;;;5.50;99.90;;;;;;4996663;28;20101;-76
2021/12/22 08:58:06;;;;;;;17.10;11.52;;;5.50;99.90;;;;;;4996976;28;20053;-74
2021/12/22 09:00:33;;;;;;;22.80;11.55;;;5.50;99.90;;;;;;4996824;28;20034;-76
2021/12/22 09:03:01;;;;;;;18.00;11.45;;;6.20;99.90;;;;;;4997463;28;20097;-72
2021/12/22 09:05:27;;;;;;;20.92;13.23;;;6.90;99.90;;;;;;4996056;28;20538;-74
2021/12/22 09:07:53;;;;;;;16.00;10.95;;;6.90;99.90;;;;;;4996983;28;20052;-74
2021/12/22 09:10:18;;;;;;;17.75;11.90;;;6.90;99.90;;;;;;4997174;28;20029;-75
2021/12/22 09:12:44;;;;;;;17.63;11.15;;;6.80;99.90;;;;;;4996306;28;20041;-74
2021/12/22 09:15:10;;;;;;;16.48;10.55;;;6.70;99.90;;;;;;4995109;28;20018;-73
2021/12/22 09:17:35;;;;;;;20.35;12.20;;;6.90;99.90;;;;;;4998962;28;20040;-74
2021/12/22 09:20:02;;;;;;;21.85;11.65;;;7.10;99.90;;;;;;4995879;28;20038;-73
2021/12/22 09:22:28;;;;;;;19.92;11.85;;;7.30;99.90;;;;;;4997467;28;20026;-73
2021/12/22 09:24:54;;;;;;;17.27;11.23;;;7.10;99.90;;;;;;4996003;28;20049;-73
2021/12/22 09:27:19;;;;;;;15.52;10.95;;;6.90;99.90;;;;;;4995603;28;20070;-73
2021/12/22 09:29:45;;;;;;;17.45;10.68;;;6.80;99.90;;;;;;4995974;28;20026;-72
2021/12/22 09:32:16;;;;;;;18.42;11.55;;;6.80;99.90;;;;;;4996039;28;20019;-73
2021/12/22 09:34:45;;;;;;;16.48;10.43;;;6.90;99.90;;;;;;4992311;28;20019;-73
2021/12/22 09:37:12;;;;;;;16.42;10.80;;;7.10;99.90;;;;;;4995925;28;20368;-72
2021/12/22 09:39:38;;;;;;;15.05;10.85;;;7.50;99.90;;;;;;4993609;28;20565;-74
2021/12/22 09:42:05;;;;;;;18.58;11.05;;;7.60;99.90;;;;;;4995053;28;20054;-73
2021/12/22 09:44:33;;;;;;;20.55;11.50;;;7.50;99.90;;;;;;4995274;28;20022;-73
2021/12/22 09:47:00;;;;;;;18.27;10.43;;;7.60;99.90;;;;;;4995264;28;20369;-73
2021/12/22 09:52:18;;;;;;;18.27;9.98;;;8.10;99.90;;;;;;4995283;28;20031;-75
2021/12/22 09:54:50;;;;;;;16.77;8.85;;;8.20;99.90;;;;;;4993742;28;20057;-76
2021/12/22 09:57:17;;;;;;;18.50;10.07;;;8.20;99.90;;;;;;4993205;28;20467;-72
2021/12/22 09:59:45;;;;;;;16.52;9.27;;;8.10;99.90;;;;;;4994266;28;20113;-74
2021/12/22 10:02:11;;;;;;;16.83;10.45;;;8.10;99.90;;;;;;4994926;28;20022;-75
2021/12/22 12:04:27;;;;;;;;;;;;;;;;;;;;;
2021/12/22 14:58:55;;;;;;;19.63;11.02;;;6.00;99.90;;;;;;5016939;28;20674;-80
